Time;durP1;ratioP1;P1;durP2;ratioP2;P2;SDS_P1;SDS_P2;PMS_P1;PMS_P2;Temp;Humidity;BMP_temperature;BMP_pressure;BME280_temperature;BME280_humidity;BME280_pressure;Samples;Min_cycle;Max_cycle;Signal;HPM_P1;HPM_P2
2022/09/26 00:01:21;;;;;;;3.23;2.77;;;8.30;99.90;;;;;;465536;254;27954;-72
2022/09/26 00:03:22;;;;;;;3.40;2.93;;;8.30;99.90;;;;;;465526;254;27796;-68
2022/09/26 00:05:23;;;;;;;3.50;3.20;;;8.20;99.90;;;;;;465536;254;28361;-70
2022/09/26 00:07:25;;;;;;;3.23;3.00;;;8.20;99.90;;;;;;465442;254;27859;-68
2022/09/26 00:09:26;;;;;;;3.50;3.20;;;8.20;99.90;;;;;;465524;254;28142;-69
2022/09/26 00:11:27;;;;;;;2.93;2.73;;;8.20;99.90;;;;;;465529;254;28033;-71
2022/09/26 00:13:28;;;;;;;3.00;2.80;;;8.20;99.90;;;;;;465524;254;28370;-68
2022/09/26 00:15:30;;;;;;;2.67;2.47;;;8.20;99.90;;;;;;465557;254;28417;-70
2022/09/26 00:17:31;;;;;;;3.93;3.40;;;8.20;99.90;;;;;;465343;251;28411;-69
2022/09/26 00:19:32;;;;;;;4.07;2.80;;;8.20;99.90;;;;;;465539;254;28199;-68
2022/09/26 00:21:33;;;;;;;3.00;2.80;;;8.20;99.90;;;;;;465547;254;29027;-68
2022/09/26 00:23:35;;;;;;;2.97;2.77;;;8.20;99.90;;;;;;465922;243;28275;-68
2022/09/26 00:25:36;;;;;;;3.43;3.13;;;8.20;99.90;;;;;;481905;247;28001;-70
2022/09/26 00:27:37;;;;;;;3.10;2.90;;;8.10;99.90;;;;;;481924;247;27984;-69
2022/09/26 00:29:38;;;;;;;3.30;3.03;;;8.10;99.90;;;;;;481967;247;28074;-69
2022/09/26 00:31:40;;;;;;;2.90;2.70;;;8.20;99.90;;;;;;481982;247;28109;-68
2022/09/26 00:33:41;;;;;;;3.50;3.20;;;8.20;99.90;;;;;;482748;242;27943;-69
2022/09/26 00:35:42;;;;;;;3.17;2.87;;;8.10;99.90;;;;;;480415;247;27722;-71
2022/09/26 00:37:43;;;;;;;3.20;2.90;;;8.10;99.90;;;;;;480351;247;27709;-68
2022/09/26 00:39:45;;;;;;;3.13;2.93;;;8.10;99.90;;;;;;480366;247;27993;-69
2022/09/26 00:41:46;;;;;;;3.20;2.90;;;8.10;99.90;;;;;;480393;247;27567;-68
2022/09/26 00:43:47;;;;;;;3.20;3.00;;;8.10;99.90;;;;;;480392;247;27985;-69
2022/09/26 00:45:48;;;;;;;3.37;2.87;;;8.10;99.90;;;;;;480389;247;27982;-70
2022/09/26 00:47:50;;;;;;;3.33;3.13;;;8.10;99.90;;;;;;480347;247;27938;-68
2022/09/26 00:49:51;;;;;;;3.80;3.50;;;8.10;99.90;;;;;;480383;247;27929;-68
2022/09/26 00:51:52;;;;;;;3.40;3.20;;;8.00;99.90;;;;;;480400;247;27717;-68
2022/09/26 00:53:54;;;;;;;3.70;3.40;;;8.00;99.90;;;;;;480348;247;28502;-72
2022/09/26 00:55:55;;;;;;;3.30;3.03;;;8.00;99.90;;;;;;480388;247;28202;-72
2022/09/26 00:57:56;;;;;;;4.50;3.60;;;8.00;99.90;;;;;;480361;247;28376;-68
2022/09/26 00:59:57;;;;;;;3.80;3.50;;;8.00;99.90;;;;;;480402;242;28553;-68
2022/09/26 01:01:58;;;;;;;3.47;3.17;;;8.00;99.90;;;;;;480384;247;28162;-68
2022/09/26 01:04:00;;;;;;;5.10;4.30;;;7.90;99.90;;;;;;480419;247;28082;-67
2022/09/26 01:06:01;;;;;;;5.30;4.70;;;7.90;99.90;;;;;;480400;247;27622;-74
2022/09/26 01:08:02;;;;;;;7.60;4.77;;;7.80;99.90;;;;;;480395;247;27923;-69
2022/09/26 01:10:04;;;;;;;7.22;4.30;;;7.80;99.90;;;;;;480379;247;28044;-70
2022/09/26 01:12:05;;;;;;;4.90;4.10;;;7.80;99.90;;;;;;480459;247;27468;-67
2022/09/26 01:14:06;;;;;;;4.67;4.27;;;7.80;99.90;;;;;;480412;247;28041;-69
2022/09/26 01:16:07;;;;;;;7.43;5.10;;;7.80;99.90;;;;;;480345;247;28203;-72
2022/09/26 01:18:08;;;;;;;7.43;5.30;;;7.60;99.90;;;;;;480404;247;27926;-68
2022/09/26 01:20:10;;;;;;;7.07;5.00;;;7.70;99.90;;;;;;480410;247;27584;-69
2022/09/26 01:22:11;;;;;;;5.80;5.30;;;7.60;99.90;;;;;;480413;247;27680;-68
2022/09/26 01:24:12;;;;;;;7.40;5.23;;;7.60;99.90;;;;;;480417;247;28323;-68
2022/09/26 01:26:13;;;;;;;5.70;5.10;;;7.60;99.90;;;;;;480375;247;28318;-69
2022/09/26 01:28:15;;;;;;;6.67;5.13;;;7.50;99.90;;;;;;480438;247;28474;-68
2022/09/26 01:30:16;;;;;;;6.47;5.80;;;7.50;99.90;;;;;;480432;247;28501;-69
2022/09/26 01:34:38;;;;;;;4.97;4.50;;;7.50;99.90;;;;;;490522;233;29250;-68
2022/09/26 01:36:38;;;;;;;5.53;4.43;;;7.50;99.90;;;;;;475824;250;28022;-68
2022/09/26 01:38:40;;;;;;;4.43;4.03;;;7.60;99.90;;;;;;474025;251;29150;-68
2022/09/26 01:40:41;;;;;;;4.00;3.70;;;7.50;99.90;;;;;;476879;249;29404;-68
2022/09/26 01:42:42;;;;;;;4.55;4.15;;;7.60;99.90;;;;;;474087;251;27415;-68
2022/09/26 01:44:43;;;;;;;3.95;3.65;;;7.50;99.90;;;;;;467284;243;27504;-68
2022/09/26 01:46:45;;;;;;;3.70;3.40;;;7.50;99.90;;;;;;488315;243;27476;-68
2022/09/26 01:48:47;;;;;;;4.60;3.80;;;7.50;99.90;;;;;;474042;249;28726;-69
2022/09/26 01:50:47;;;;;;;3.90;3.50;;;7.50;99.90;;;;;;466084;250;28892;-69
2022/09/26 01:54:59;;;;;;;3.67;3.37;;;7.50;99.90;;;;;;476759;244;28940;-70
2022/09/26 01:57:00;;;;;;;3.20;2.97;;;7.40;99.90;;;;;;477010;249;29360;-68
2022/09/26 01:59:01;;;;;;;3.73;3.43;;;7.40;99.90;;;;;;477067;249;27919;-69
2022/09/26 02:01:02;;;;;;;3.90;3.60;;;7.40;99.90;;;;;;477040;249;28861;-68
2022/09/26 02:03:04;;;;;;;3.93;3.63;;;7.40;99.90;;;;;;476340;241;27549;-69
2022/09/26 02:05:05;;;;;;;4.23;3.47;;;7.40;99.90;;;;;;490157;242;28760;-70
2022/09/26 02:07:06;;;;;;;4.62;4.22;;;7.30;99.90;;;;;;491340;241;28698;-68
2022/09/26 02:09:08;;;;;;;3.78;3.47;;;7.30;99.90;;;;;;491365;241;27383;-68
2022/09/26 02:11:09;;;;;;;3.77;3.47;;;7.30;99.90;;;;;;491397;241;27378;-71
2022/09/26 02:13:10;;;;;;;3.78;3.47;;;7.30;99.90;;;;;;487830;241;28716;-67
2022/09/26 02:15:11;;;;;;;3.80;3.50;;;7.30;99.90;;;;;;478258;247;27529;-68
2022/09/26 02:17:12;;;;;;;4.65;4.25;;;7.20;99.90;;;;;;478216;247;28833;-68
2022/09/26 02:19:14;;;;;;;3.87;3.57;;;7.20;99.90;;;;;;478263;247;27889;-69
2022/09/26 02:21:15;;;;;;;5.20;4.05;;;7.20;99.90;;;;;;478277;247;28517;-71
2022/09/26 02:23:16;;;;;;;4.15;3.85;;;7.20;99.90;;;;;;477609;241;28014;-68
2022/09/26 02:25:18;;;;;;;4.87;3.58;;;7.10;99.90;;;;;;489870;242;27497;-70
2022/09/26 02:27:19;;;;;;;4.03;3.60;;;7.20;99.90;;;;;;489817;242;27363;-68
2022/09/26 02:29:20;;;;;;;4.43;3.62;;;7.20;99.90;;;;;;489873;242;27392;-68
2022/09/26 02:31:21;;;;;;;4.37;3.50;;;7.20;99.90;;;;;;489870;242;27393;-71
2022/09/26 02:33:23;;;;;;;4.60;4.20;;;7.20;99.90;;;;;;489866;242;28722;-68
2022/09/26 02:37:43;;;;;;;3.85;3.55;;;7.20;99.90;;;;;;489784;242;27773;-69
2022/09/26 02:39:45;;;;;;;4.23;3.83;;;7.20;99.90;;;;;;489868;237;27486;-69
2022/09/26 02:41:46;;;;;;;4.80;3.80;;;7.10;99.90;;;;;;489865;242;28792;-69
2022/09/26 02:43:47;;;;;;;4.60;4.15;;;7.00;99.90;;;;;;486300;240;29058;-69
2022/09/26 02:45:48;;;;;;;5.43;4.37;;;7.10;99.90;;;;;;489988;242;27981;-68
2022/09/26 02:47:50;;;;;;;4.28;3.87;;;7.00;99.90;;;;;;488473;243;27447;-68
2022/09/26 02:49:51;;;;;;;4.72;4.28;;;7.00;99.90;;;;;;488544;243;27383;-68
2022/09/26 02:51:53;;;;;;;4.75;3.62;;;7.00;99.90;;;;;;488457;243;27437;-69
2022/09/26 02:53:53;;;;;;;5.20;3.92;;;7.00;99.90;;;;;;488521;243;27385;-68
2022/09/26 02:55:55;;;;;;;8.57;4.18;;;6.90;99.90;;;;;;488405;243;27896;-68
2022/09/26 02:58:02;;;;;;;4.50;4.10;;;6.90;99.90;;;;;;488496;243;27981;-68
2022/09/26 02:59:58;;;;;;;4.53;4.12;;;6.90;99.90;;;;;;487981;243;27531;-68
2022/09/26 03:01:58;;;;;;;4.90;4.35;;;6.80;99.90;;;;;;488572;243;27496;-69
2022/09/26 03:04:00;;;;;;;4.80;4.40;;;6.80;99.90;;;;;;484593;238;27400;-68
2022/09/26 03:06:01;;;;;;;5.75;4.10;;;6.80;99.90;;;;;;482873;246;27578;-73
2022/09/26 03:08:02;;;;;;;4.60;4.20;;;6.80;99.90;;;;;;484640;245;27865;-68
2022/09/26 03:10:03;;;;;;;4.05;3.55;;;6.80;99.90;;;;;;499214;238;27807;-68
2022/09/26 03:12:05;;;;;;;3.70;3.40;;;6.80;99.90;;;;;;481204;247;27986;-69
2022/09/26 03:14:06;;;;;;;6.07;3.55;;;6.80;99.90;;;;;;481139;247;27484;-68
2022/09/26 03:16:07;;;;;;;3.60;3.30;;;6.80;99.90;;;;;;481090;247;27511;-69
2022/09/26 03:18:08;;;;;;;3.75;3.45;;;6.90;99.90;;;;;;481127;247;27526;-71
2022/09/26 03:20:10;;;;;;;3.50;3.20;;;6.90;99.90;;;;;;481173;247;27428;-68
2022/09/26 03:22:11;;;;;;;4.00;2.92;;;6.80;99.90;;;;;;481157;247;27428;-69
2022/09/26 03:24:12;;;;;;;3.70;3.40;;;6.80;99.90;;;;;;477211;243;27889;-68
2022/09/26 03:26:13;;;;;;;3.30;3.10;;;6.70;99.90;;;;;;476185;250;27985;-69
2022/09/26 03:28:15;;;;;;;3.33;3.03;;;6.80;99.90;;;;;;476314;250;27449;-71
2022/09/26 03:30:16;;;;;;;3.37;3.10;;;6.70;99.90;;;;;;476331;250;27425;-68
2022/09/26 03:32:17;;;;;;;3.47;3.17;;;6.70;99.90;;;;;;476316;250;27459;-69
2022/09/26 03:34:18;;;;;;;4.00;3.50;;;6.70;99.90;;;;;;476333;250;27453;-68
2022/09/26 03:36:20;;;;;;;4.50;4.05;;;6.60;99.90;;;;;;476281;250;27511;-68
2022/09/26 03:38:21;;;;;;;3.55;3.25;;;6.60;99.90;;;;;;476228;250;27932;-71
2022/09/26 03:40:22;;;;;;;3.92;3.50;;;6.60;99.90;;;;;;476303;250;27952;-69
2022/09/26 03:42:24;;;;;;;3.80;3.50;;;6.60;99.90;;;;;;476288;250;27454;-69
2022/09/26 03:44:25;;;;;;;3.97;3.25;;;6.60;99.90;;;;;;475540;236;27610;-68
2022/09/26 03:46:26;;;;;;;5.15;4.05;;;6.60;99.90;;;;;;473719;251;27564;-68
2022/09/26 03:48:27;;;;;;;4.78;3.85;;;6.60;99.90;;;;;;473805;251;27557;-71
2022/09/26 03:50:29;;;;;;;4.25;3.95;;;6.50;99.90;;;;;;473773;251;27599;-68
2022/09/26 03:52:30;;;;;;;4.93;4.35;;;6.50;99.90;;;;;;473799;251;28110;-69
2022/09/26 03:54:31;;;;;;;4.28;3.87;;;6.50;99.90;;;;;;469283;245;27884;-68
2022/09/26 03:56:32;;;;;;;4.45;4.05;;;6.50;99.90;;;;;;476301;249;27440;-68
2022/09/26 03:58:34;;;;;;;4.12;3.80;;;6.50;99.90;;;;;;482266;245;27515;-71
2022/09/26 04:00:35;;;;;;;3.85;3.50;;;6.60;99.90;;;;;;481947;246;27509;-67
2022/09/26 04:02:36;;;;;;;4.10;3.70;;;6.50;99.90;;;;;;482620;245;27542;-68
2022/09/26 04:04:37;;;;;;;4.37;3.53;;;6.60;99.90;;;;;;473474;251;27546;-68
2022/09/26 04:06:39;;;;;;;4.30;3.80;;;6.60;99.90;;;;;;478282;247;27939;-69
2022/09/26 04:08:40;;;;;;;3.40;3.10;;;6.60;99.90;;;;;;484561;245;28034;-71
2022/09/26 04:10:41;;;;;;;3.65;3.35;;;6.60;99.90;;;;;;474129;246;27980;-69
2022/09/26 04:12:42;;;;;;;4.28;3.70;;;6.60;99.90;;;;;;474364;249;27541;-68
2022/09/26 04:14:44;;;;;;;3.10;2.80;;;6.60;99.90;;;;;;487804;239;27592;-68
2022/09/26 04:16:45;;;;;;;3.58;3.28;;;6.60;99.90;;;;;;488862;242;27398;-68
2022/09/26 04:18:46;;;;;;;3.17;2.85;;;6.70;99.90;;;;;;488901;242;27573;-72
2022/09/26 04:20:47;;;;;;;3.00;2.80;;;6.60;99.90;;;;;;488818;242;27414;-68
2022/09/26 04:22:49;;;;;;;2.80;2.60;;;6.60;99.90;;;;;;488911;242;28033;-68
2022/09/26 04:24:50;;;;;;;3.00;2.80;;;6.60;99.90;;;;;;488783;242;27916;-68
2022/09/26 04:26:51;;;;;;;3.00;2.80;;;6.60;99.90;;;;;;488682;242;27466;-68
2022/09/26 04:28:53;;;;;;;3.15;2.95;;;6.70;99.90;;;;;;488766;242;27584;-71
2022/09/26 04:30:54;;;;;;;3.00;2.80;;;6.70;99.90;;;;;;488751;242;27549;-68
2022/09/26 04:32:55;;;;;;;3.42;3.03;;;6.70;99.90;;;;;;488697;242;27497;-68
2022/09/26 04:34:56;;;;;;;3.28;3.05;;;6.70;99.90;;;;;;488838;242;27478;-68
2022/09/26 04:36:59;;;;;;;3.00;2.80;;;6.70;99.90;;;;;;488878;242;28085;-68
2022/09/26 04:38:59;;;;;;;3.92;3.53;;;6.80;99.90;;;;;;488898;242;28059;-69
2022/09/26 04:41:00;;;;;;;3.72;3.42;;;6.70;99.90;;;;;;488960;242;27463;-68
2022/09/26 04:43:01;;;;;;;3.90;2.95;;;6.70;99.90;;;;;;488928;242;27501;-69
2022/09/26 04:45:02;;;;;;;2.90;2.70;;;6.80;99.90;;;;;;488940;242;27482;-68
2022/09/26 04:47:04;;;;;;;6.20;3.33;;;6.80;99.90;;;;;;488823;242;27462;-68
2022/09/26 04:49:05;;;;;;;3.40;3.10;;;6.80;99.90;;;;;;488952;243;27417;-70
2022/09/26 04:51:06;;;;;;;5.10;3.47;;;6.70;99.90;;;;;;488950;242;27909;-68
2022/09/26 04:53:08;;;;;;;4.07;3.65;;;6.80;99.90;;;;;;488982;242;27962;-69
2022/09/26 04:55:09;;;;;;;8.38;5.07;;;6.70;99.90;;;;;;488957;242;27522;-69
2022/09/26 04:57:12;;;;;;;4.43;4.03;;;6.70;99.90;;;;;;488877;242;27382;-69
2022/09/26 04:59:11;;;;;;;3.85;3.53;;;6.70;99.90;;;;;;488882;242;27418;-70
2022/09/26 05:01:13;;;;;;;4.87;3.60;;;6.80;99.90;;;;;;488966;242;27398;-68
2022/09/26 05:03:14;;;;;;;4.20;3.90;;;6.80;99.90;;;;;;487067;239;27587;-68
2022/09/26 05:05:15;;;;;;;4.10;3.80;;;6.90;99.90;;;;;;484139;244;28854;-68
2022/09/26 05:07:17;;;;;;;4.93;4.43;;;6.90;99.90;;;;;;491735;242;27559;-68
2022/09/26 05:09:19;;;;;;;8.18;4.87;;;6.90;99.90;;;;;;490756;241;27480;-69
2022/09/26 05:11:20;;;;;;;4.65;4.15;;;6.90;99.90;;;;;;486203;244;27546;-68
2022/09/26 05:13:20;;;;;;;5.43;4.40;;;6.90;99.90;;;;;;490547;242;27496;-68
2022/09/26 05:15:21;;;;;;;5.73;4.17;;;6.90;99.90;;;;;;486305;244;29157;-70
2022/09/26 05:17:23;;;;;;;4.40;4.00;;;7.00;99.90;;;;;;481812;247;27829;-69
2022/09/26 05:19:25;;;;;;;4.53;4.13;;;7.00;99.90;;;;;;486323;244;28059;-69
2022/09/26 05:21:25;;;;;;;5.53;3.55;;;7.10;99.90;;;;;;490759;242;28267;-69
2022/09/26 05:28:05;;;;;;;4.28;3.87;;;7.10;99.90;;;;;;492820;241;27534;-68
2022/09/26 05:30:07;;;;;;;4.70;3.95;;;7.10;99.90;;;;;;492773;241;27958;-69
2022/09/26 05:32:09;;;;;;;6.43;4.30;;;7.10;99.90;;;;;;492792;241;27537;-71
2022/09/26 05:34:09;;;;;;;4.05;3.65;;;7.20;99.90;;;;;;492722;241;27482;-69
2022/09/26 05:36:10;;;;;;;10.90;4.23;;;7.30;99.90;;;;;;492720;241;27497;-69
2022/09/26 05:38:12;;;;;;;3.50;3.20;;;7.30;99.90;;;;;;492786;241;28897;-68
2022/09/26 05:42:33;;;;;;;3.47;3.20;;;7.30;99.90;;;;;;492808;240;28825;-67
2022/09/26 05:44:34;;;;;;;3.55;3.30;;;7.20;99.90;;;;;;486928;237;28885;-69
2022/09/26 05:46:37;;;;;;;4.00;3.37;;;7.20;99.90;;;;;;487301;241;27481;-67
2022/09/26 05:48:37;;;;;;;3.70;3.40;;;7.20;99.90;;;;;;487262;243;28750;-71
2022/09/26 05:50:38;;;;;;;3.83;3.53;;;7.20;99.90;;;;;;487323;243;28568;-68
2022/09/26 05:52:39;;;;;;;3.67;3.37;;;7.20;99.90;;;;;;487355;243;28348;-69
2022/09/26 05:54:40;;;;;;;4.45;4.05;;;7.20;99.90;;;;;;476271;235;30115;-67
2022/09/26 05:56:42;;;;;;;4.43;3.53;;;7.20;99.90;;;;;;475023;250;27487;-68
2022/09/26 05:58:43;;;;;;;4.20;3.80;;;7.10;99.90;;;;;;475259;250;28911;-68
2022/09/26 06:00:46;;;;;;;4.90;4.40;;;7.20;99.90;;;;;;474994;250;28846;-70
2022/09/26 06:02:45;;;;;;;4.73;3.63;;;7.10;99.90;;;;;;475161;250;27466;-68
2022/09/26 06:04:47;;;;;;;5.30;4.17;;;7.10;99.90;;;;;;475831;246;28590;-71
2022/09/26 06:06:49;;;;;;;5.95;4.10;;;7.20;99.90;;;;;;467005;254;27939;-69
2022/09/26 06:08:49;;;;;;;4.30;3.58;;;7.30;99.90;;;;;;475395;250;27502;-70
2022/09/26 06:10:50;;;;;;;5.23;3.50;;;7.30;99.90;;;;;;467068;254;27979;-67
2022/09/26 06:12:52;;;;;;;4.65;4.20;;;7.40;99.90;;;;;;472081;252;28976;-69
2022/09/26 06:14:53;;;;;;;3.87;3.58;;;7.40;99.90;;;;;;472075;250;27623;-72
2022/09/26 06:16:54;;;;;;;4.57;4.07;;;7.40;99.90;;;;;;472007;250;27534;-70
2022/09/26 06:18:55;;;;;;;4.05;3.75;;;7.50;99.90;;;;;;472081;250;29010;-70
2022/09/26 06:20:57;;;;;;;4.70;4.07;;;7.50;99.90;;;;;;472073;250;27664;-69
2022/09/26 06:22:58;;;;;;;5.68;4.00;;;7.60;99.90;;;;;;472067;250;27901;-69
2022/09/26 06:24:59;;;;;;;4.67;4.20;;;7.70;99.90;;;;;;472083;250;27549;-71
2022/09/26 06:27:00;;;;;;;5.13;4.10;;;7.70;99.90;;;;;;472034;250;29324;-69
2022/09/26 06:29:02;;;;;;;4.50;4.10;;;7.80;99.90;;;;;;472055;250;28497;-69
2022/09/26 06:31:03;;;;;;;4.07;3.43;;;7.80;99.90;;;;;;472075;250;28894;-69
2022/09/26 06:33:04;;;;;;;5.20;3.97;;;7.80;99.90;;;;;;472661;241;29415;-72
2022/09/26 06:35:05;;;;;;;5.67;4.70;;;7.80;99.90;;;;;;475874;244;29433;-72
2022/09/26 06:37:07;;;;;;;8.20;4.90;;;7.80;99.90;;;;;;479925;247;28076;-69
2022/09/26 06:39:08;;;;;;;7.87;6.10;;;7.90;99.90;;;;;;476962;248;27866;-70
2022/09/26 06:41:09;;;;;;;13.13;7.13;;;7.90;99.90;;;;;;476897;247;28847;-70
2022/09/26 06:43:10;;;;;;;8.20;6.03;;;7.90;99.90;;;;;;488477;242;28317;-69
2022/09/26 06:45:12;;;;;;;6.73;5.20;;;7.90;99.90;;;;;;478849;246;27902;-72
2022/09/26 06:47:13;;;;;;;8.70;5.20;;;7.90;99.90;;;;;;476848;247;27801;-70
2022/09/26 06:49:14;;;;;;;7.90;5.57;;;7.90;99.90;;;;;;479148;247;28227;-69
2022/09/26 06:51:15;;;;;;;10.27;5.57;;;7.90;99.90;;;;;;478766;248;27898;-69
2022/09/26 06:53:17;;;;;;;5.00;4.50;;;8.00;99.90;;;;;;480815;235;27595;-70
2022/09/26 06:55:18;;;;;;;5.63;4.93;;;8.00;99.90;;;;;;480546;247;28208;-71
2022/09/26 06:57:19;;;;;;;7.63;5.80;;;8.00;99.90;;;;;;480410;247;27478;-69
2022/09/26 06:59:22;;;;;;;5.87;4.90;;;8.00;99.90;;;;;;480539;247;27633;-70
2022/09/26 07:01:22;;;;;;;8.50;5.30;;;8.10;99.90;;;;;;480464;247;28421;-69
2022/09/26 07:03:25;;;;;;;7.37;5.50;;;8.10;99.90;;;;;;479929;239;28509;-69
2022/09/26 07:05:24;;;;;;;7.13;4.87;;;8.10;99.90;;;;;;485121;244;28602;-72
2022/09/26 07:07:25;;;;;;;5.10;4.50;;;8.20;99.90;;;;;;485142;245;28492;-69
2022/09/26 07:09:27;;;;;;;6.07;4.80;;;8.20;99.90;;;;;;485203;245;28522;-69
2022/09/26 07:11:28;;;;;;;5.77;4.80;;;8.20;99.90;;;;;;485217;245;28432;-69
2022/09/26 07:13:29;;;;;;;7.27;5.30;;;8.30;99.90;;;;;;485221;245;27582;-69
2022/09/26 07:15:32;;;;;;;9.13;4.97;;;8.30;99.90;;;;;;485196;245;27978;-72
2022/09/26 07:17:32;;;;;;;4.67;4.17;;;8.40;99.90;;;;;;485071;245;27958;-69
2022/09/26 07:19:33;;;;;;;4.60;4.13;;;8.40;99.90;;;;;;485222;245;28173;-69
2022/09/26 07:21:34;;;;;;;4.73;4.23;;;8.50;99.90;;;;;;485220;244;27888;-69
2022/09/26 07:23:35;;;;;;;5.67;4.53;;;8.50;99.90;;;;;;485225;245;28506;-70
2022/09/26 07:25:38;;;;;;;5.00;4.50;;;8.60;99.90;;;;;;485221;245;27982;-71
2022/09/26 07:27:38;;;;;;;5.77;5.20;;;8.60;99.90;;;;;;485065;245;27985;-69
2022/09/26 07:29:39;;;;;;;6.90;4.67;;;8.60;99.90;;;;;;485219;245;27990;-70
2022/09/26 07:31:40;;;;;;;4.87;4.33;;;8.70;99.90;;;;;;485213;245;27623;-69
2022/09/26 07:33:42;;;;;;;4.53;4.13;;;8.80;99.90;;;;;;485216;245;28025;-69
2022/09/26 07:35:46;;;;;;;6.20;5.03;;;8.80;99.90;;;;;;485153;245;28376;-72
2022/09/26 07:37:47;;;;;;;7.00;5.10;;;8.90;99.90;;;;;;485187;245;27998;-68
2022/09/26 07:39:48;;;;;;;5.03;4.53;;;8.90;99.90;;;;;;485224;245;28052;-68
2022/09/26 07:41:50;;;;;;;5.43;3.83;;;9.00;99.90;;;;;;485151;245;28067;-70
2022/09/26 07:43:51;;;;;;;7.17;3.87;;;9.20;99.90;;;;;;486771;238;28064;-72
2022/09/26 07:50:31;;;;;;;7.20;4.73;;;9.70;99.90;;;;;;489461;241;27748;-69
2022/09/26 07:52:32;;;;;;;5.00;4.20;;;9.90;99.90;;;;;;489489;242;27700;-68
2022/09/26 07:54:35;;;;;;;6.40;3.90;;;9.80;99.90;;;;;;489497;242;27848;-69
2022/09/26 07:56:35;;;;;;;5.80;4.47;;;9.70;99.90;;;;;;489360;243;27589;-69
2022/09/26 07:58:37;;;;;;;5.03;4.07;;;9.90;99.90;;;;;;489441;242;27853;-69
2022/09/26 08:00:39;;;;;;;4.10;3.73;;;10.00;99.90;;;;;;489438;242;27579;-73
2022/09/26 08:02:41;;;;;;;4.10;3.20;;;10.00;99.90;;;;;;489442;242;28364;-70
2022/09/26 08:04:40;;;;;;;3.93;3.53;;;10.10;99.90;;;;;;475730;238;27754;-70
2022/09/26 08:06:41;;;;;;;3.50;3.20;;;10.10;99.90;;;;;;454850;258;28039;-69
2022/09/26 08:08:43;;;;;;;3.90;3.50;;;10.10;99.90;;;;;;473872;248;28318;-69
2022/09/26 08:10:44;;;;;;;3.67;3.37;;;10.00;99.90;;;;;;473881;250;28568;-71
2022/09/26 08:12:46;;;;;;;5.80;3.90;;;10.00;99.90;;;;;;473871;250;28395;-69
2022/09/26 08:14:51;;;;;;;3.83;3.43;;;10.10;99.90;;;;;;474877;239;28456;-71
2022/09/26 08:16:48;;;;;;;5.70;3.80;;;10.30;99.90;;;;;;473797;249;28035;-69
2022/09/26 08:18:49;;;;;;;5.07;3.40;;;10.40;99.90;;;;;;473875;250;28464;-69
2022/09/26 08:20:50;;;;;;;5.47;3.80;;;10.60;99.90;;;;;;473876;250;28362;-72
2022/09/26 08:22:51;;;;;;;3.37;3.07;;;10.80;99.90;;;;;;473879;250;28128;-69
2022/09/26 08:24:53;;;;;;;3.53;3.23;;;10.70;99.90;;;;;;473893;250;27895;-69
2022/09/26 08:26:54;;;;;;;3.87;3.47;;;10.70;99.90;;;;;;473638;250;28011;-69
2022/09/26 08:28:55;;;;;;;5.50;3.80;;;10.50;99.90;;;;;;473866;250;28115;-70
2022/09/26 08:30:56;;;;;;;4.50;3.40;;;10.50;99.90;;;;;;473876;250;27995;-71
2022/09/26 08:33:00;;;;;;;4.80;3.47;;;10.50;99.90;;;;;;473856;250;28117;-69
2022/09/26 08:34:59;;;;;;;3.37;3.10;;;10.60;99.90;;;;;;473863;250;28003;-70
2022/09/26 08:37:00;;;;;;;5.97;3.23;;;10.70;99.90;;;;;;473810;250;28099;-69
2022/09/26 08:39:01;;;;;;;3.27;2.97;;;10.80;99.90;;;;;;473873;250;27981;-69
2022/09/26 08:41:03;;;;;;;3.27;3.00;;;10.70;99.90;;;;;;473866;250;28580;-72
2022/09/26 08:43:06;;;;;;;5.60;3.50;;;10.60;99.90;;;;;;473859;250;28527;-70
2022/09/26 08:46:26;;;;;;;4.77;3.20;;;10.60;99.90;;;;;;473872;250;28715;-69
2022/09/26 08:47:06;;;;;;;3.33;2.77;;;10.70;99.90;;;;;;473927;250;27969;-69
2022/09/26 08:49:14;;;;;;;4.63;3.70;;;10.70;99.90;;;;;;473859;250;27864;-69
2022/09/26 08:51:10;;;;;;;3.17;2.87;;;10.70;99.90;;;;;;473884;250;28196;-74
2022/09/26 08:53:10;;;;;;;5.10;3.60;;;10.80;99.90;;;;;;473871;250;27848;-69
2022/09/26 08:55:11;;;;;;;4.03;3.07;;;10.90;99.90;;;;;;473882;250;28008;-69
2022/09/26 08:57:13;;;;;;;4.63;3.30;;;10.80;99.90;;;;;;473817;250;27984;-69
2022/09/26 08:59:14;;;;;;;3.63;3.10;;;10.90;99.90;;;;;;473857;250;27951;-70
2022/09/26 09:01:15;;;;;;;3.50;3.03;;;10.90;99.90;;;;;;473897;250;27915;-73
2022/09/26 09:03:16;;;;;;;4.13;2.93;;;11.00;99.90;;;;;;473863;250;28049;-69
2022/09/26 09:05:18;;;;;;;3.40;3.10;;;11.20;99.90;;;;;;473845;250;28598;-69
2022/09/26 09:07:19;;;;;;;3.10;2.83;;;11.20;99.90;;;;;;473826;250;28665;-69
2022/09/26 09:09:20;;;;;;;3.93;3.20;;;11.30;99.90;;;;;;473882;250;28702;-69
2022/09/26 09:11:21;;;;;;;3.40;3.10;;;11.30;99.90;;;;;;473873;250;28687;-74
2022/09/26 09:13:23;;;;;;;3.00;2.70;;;11.30;99.90;;;;;;473866;250;28205;-69
2022/09/26 09:15:24;;;;;;;4.40;3.50;;;11.30;99.90;;;;;;470684;250;28335;-70
2022/09/26 09:17:25;;;;;;;5.53;3.90;;;11.10;99.90;;;;;;470039;253;28214;-70
2022/09/26 09:19:26;;;;;;;4.27;3.87;;;11.00;99.90;;;;;;470106;253;28218;-70
2022/09/26 09:21:28;;;;;;;4.40;4.00;;;11.00;99.90;;;;;;470116;253;28388;-72
2022/09/26 09:23:29;;;;;;;3.70;3.40;;;10.90;99.90;;;;;;470111;253;28173;-69
2022/09/26 09:25:31;;;;;;;4.70;3.20;;;10.80;99.90;;;;;;470092;253;28291;-69
2022/09/26 09:27:31;;;;;;;3.33;3.00;;;10.90;99.90;;;;;;470012;253;28318;-69
2022/09/26 09:29:33;;;;;;;3.83;3.53;;;11.40;99.90;;;;;;470075;253;28881;-69
2022/09/26 09:31:34;;;;;;;3.93;3.20;;;11.70;99.90;;;;;;470113;253;28796;-71
2022/09/26 09:33:35;;;;;;;5.80;3.50;;;11.50;99.90;;;;;;470121;253;28639;-68
2022/09/26 09:35:37;;;;;;;3.80;3.43;;;11.40;99.90;;;;;;470101;253;28829;-70
2022/09/26 09:37:39;;;;;;;3.73;3.43;;;11.40;99.90;;;;;;470010;253;28455;-69
2022/09/26 09:39:39;;;;;;;3.53;3.23;;;11.50;99.90;;;;;;470072;253;28200;-69
2022/09/26 09:41:40;;;;;;;6.03;2.97;;;11.70;99.90;;;;;;470114;253;28329;-69
2022/09/26 09:43:41;;;;;;;4.70;3.60;;;11.80;99.90;;;;;;470067;253;28324;-69
2022/09/26 09:45:43;;;;;;;2.77;2.53;;;11.90;99.90;;;;;;469991;253;28444;-71
2022/09/26 09:47:44;;;;;;;3.27;2.60;;;12.00;99.90;;;;;;470052;253;28396;-69
2022/09/26 09:49:45;;;;;;;3.87;3.00;;;12.20;99.90;;;;;;470111;253;28854;-69
2022/09/26 09:51:46;;;;;;;3.60;3.30;;;12.40;99.90;;;;;;470108;253;28857;-71
2022/09/26 09:53:48;;;;;;;3.60;3.30;;;12.30;99.90;;;;;;470085;253;29001;-69
2022/09/26 09:55:49;;;;;;;4.47;3.30;;;12.30;99.90;;;;;;470098;253;28712;-70
2022/09/26 09:57:50;;;;;;;3.63;2.83;;;12.30;99.90;;;;;;470026;253;28794;-69
2022/09/26 09:59:51;;;;;;;3.17;2.90;;;12.40;99.90;;;;;;470098;253;28413;-69
2022/09/26 10:01:53;;;;;;;5.37;3.60;;;12.40;99.90;;;;;;470097;253;28198;-72
2022/09/26 10:03:54;;;;;;;4.90;4.10;;;12.50;99.90;;;;;;470106;253;28327;-69
2022/09/26 10:05:55;;;;;;;3.57;3.27;;;12.50;99.90;;;;;;470091;253;28859;-70
2022/09/26 10:07:56;;;;;;;4.47;3.10;;;12.60;99.90;;;;;;469989;253;28836;-69
2022/09/26 10:09:58;;;;;;;4.13;3.50;;;12.70;99.90;;;;;;470103;253;28233;-69
2022/09/26 10:11:59;;;;;;;3.40;3.10;;;12.60;99.90;;;;;;470082;253;28310;-72
2022/09/26 10:14:02;;;;;;;3.40;3.10;;;12.70;99.90;;;;;;470106;253;28342;-69
2022/09/26 10:16:01;;;;;;;4.73;3.00;;;12.80;99.90;;;;;;474530;250;28707;-70
2022/09/26 10:18:04;;;;;;;3.37;3.07;;;12.70;99.90;;;;;;476101;250;28666;-69
2022/09/26 10:20:04;;;;;;;4.93;3.20;;;12.50;99.90;;;;;;476102;250;28789;-69
2022/09/26 10:22:08;;;;;;;6.10;3.70;;;12.60;99.90;;;;;;476117;250;28921;-72
2022/09/26 10:24:06;;;;;;;3.20;2.90;;;12.60;99.90;;;;;;475967;248;28414;-69
2022/09/26 10:26:08;;;;;;;3.20;2.90;;;12.70;99.90;;;;;;476041;250;28262;-70
2022/09/26 10:28:09;;;;;;;5.53;3.10;;;12.90;99.90;;;;;;476144;249;28276;-69
2022/09/26 10:30:11;;;;;;;3.57;3.17;;;12.80;99.90;;;;;;476121;249;28239;-69
2022/09/26 10:32:11;;;;;;;4.77;3.57;;;12.70;99.90;;;;;;476135;249;28363;-72
2022/09/26 10:34:14;;;;;;;3.30;2.70;;;12.70;99.90;;;;;;476125;250;28313;-69
2022/09/26 10:36:15;;;;;;;3.00;2.80;;;12.70;99.90;;;;;;476052;250;28143;-70
2022/09/26 10:38:15;;;;;;;2.80;2.57;;;12.70;99.90;;;;;;476126;249;28443;-69
2022/09/26 10:42:37;;;;;;;3.20;2.57;;;12.70;99.90;;;;;;476135;249;28365;-72
2022/09/26 10:44:37;;;;;;;2.53;2.43;;;12.70;99.90;;;;;;476112;249;28401;-69
2022/09/26 10:46:40;;;;;;;3.77;2.90;;;12.70;99.90;;;;;;476079;249;28326;-69
2022/09/26 10:48:46;;;;;;;2.70;2.33;;;12.70;99.90;;;;;;475993;249;28188;-69
2022/09/26 10:50:41;;;;;;;3.63;2.80;;;12.70;99.90;;;;;;475699;249;28342;-69
2022/09/26 10:52:42;;;;;;;3.00;2.73;;;12.60;99.90;;;;;;476116;249;28498;-73
2022/09/26 10:54:44;;;;;;;2.93;2.50;;;12.60;99.90;;;;;;476059;249;28812;-69
2022/09/26 10:56:46;;;;;;;2.83;2.50;;;12.60;99.90;;;;;;475997;249;28686;-71